Azamara Journey — 9HOB8 — position and weather

sailwx.info

Track history (hours):
 
Tides and Currents Weather Stations Pressure Air Temp Water Temp Dewpoint Dewpoint Depression Visibility Wind Speed Wind Dir Waves Ship Positions

Azamara Journey

Last reported at 2018-Jun-20 02:00 UTC. Time now 2018-Jun-20 02:09 UTC.
Position N 52°29' E 004°08'.

Type: Ship. MMSI: 256204000.

Date/timePositionNaut miles runAvg speedWind from/ knotsBaromVisibWave heightAir tempDewpointWater temp
2018-Jun-20 02:00N 52°29' E 004°08'816.3
2018-Jun-20 01:30N 52°27' E 003°55'5 9.9
2018-Jun-20 01:00N 52°26' E 003°47'510.3
2018-Jun-20 00:30N 52°22' E 003°41'611.0
2018-Jun-20 00:00N 52°18' E 003°36'611.3
2018-Jun-19 23:31N 52°13' E 003°31'713.6
2018-Jun-19 23:00N 52°06' E 003°27'612.0
2018-Jun-19 22:30N 52°01' E 003°24'610.9
2018-Jun-19 21:57N 51°55' E 003°21'710.3
2018-Jun-19 21:18N 51°49' E 003°18'511.3
2018-Jun-19 20:54N 51°44' E 003°16'4 8.4
2018-Jun-19 20:29N 51°41' E 003°16'714.3
2018-Jun-19 19:58N 51°35' E 003°23'817.6
2018-Jun-19 19:30N 51°28' E 003°31'612.1
2018-Jun-19 19:00N 51°25' E 003°39'816.6
2018-Jun-19 18:31N 51°21' E 003°50'612.4
2018-Jun-19 18:00N 51°25' E 003°58'3 6.8
2018-Jun-19 17:30N 51°23' E 004°02'510.4
2018-Jun-19 17:01N 51°24' E 004°11'4 8.8
2018-Jun-19 16:31N 51°21' E 004°16'4 7.5
2018-Jun-19 16:00N 51°17' E 004°19'4 7.0
2018-Jun-19 15:30N 51°14' E 004°22'2 3.3
2018-Jun-19 14:59N 51°13' E 004°24'0 0.0
2018-Jun-19 14:29N 51°13' E 004°24'0 0.0
2018-Jun-19 13:59N 51°13' E 004°24'0 0.0
2018-Jun-19 13:29N 51°13' E 004°24'0 0.0
2018-Jun-19 12:59N 51°13' E 004°24'0 0.0
2018-Jun-19 12:29N 51°13' E 004°24'0 0.0
2018-Jun-19 11:59N 51°13' E 004°24'0 0.0
2018-Jun-19 11:29N 51°13' E 004°24'0 0.0
2018-Jun-19 10:59N 51°13' E 004°24'0 0.0
2018-Jun-19 10:29N 51°13' E 004°24'0 0.0
2018-Jun-19 09:59N 51°13' E 004°24'0 0.0
2018-Jun-19 09:29N 51°13' E 004°24'0 0.0
2018-Jun-19 08:59N 51°13' E 004°24'0 0.0
2018-Jun-19 08:29N 51°13' E 004°24'0 0.0
2018-Jun-19 07:59N 51°13' E 004°24'0 0.0
2018-Jun-19 07:23N 51°13' E 004°24'0 0.0
2018-Jun-19 06:59N 51°13' E 004°24'0 0.0
2018-Jun-19 06:29N 51°13' E 004°24'0 0.0
2018-Jun-19 05:56N 51°13' E 004°24'0 0.0
2018-Jun-19 05:29N 51°13' E 004°24'0 0.0
2018-Jun-19 04:59N 51°13' E 004°24'0 0.0
2018-Jun-19 04:29N 51°13' E 004°24'0 0.0
2018-Jun-19 03:56N 51°13' E 004°24'0 0.0
2018-Jun-19 03:23N 51°13' E 004°24'0 0.0
2018-Jun-19 02:56N 51°13' E 004°24'0 0.0
2018-Jun-19 02:29N 51°13' E 004°24'0 0.0
2018-Jun-19 01:59N 51°13' E 004°24'0 0.0
2018-Jun-19 01:29N 51°13' E 004°24'0 0.0
2018-Jun-19 00:59N 51°13' E 004°24'0 0.0
2018-Jun-19 00:29N 51°13' E 004°24'0 0.0
2018-Jun-18 23:59N 51°13' E 004°24'0 0.0
2018-Jun-18 23:26N 51°13' E 004°24'0 0.0
2018-Jun-18 22:53N 51°13' E 004°24'0 0.0
2018-Jun-18 22:29N 51°13' E 004°24'0 0.0
2018-Jun-18 21:50N 51°13' E 004°24'0 0.0
2018-Jun-18 21:29N 51°13' E 004°24'0 0.0
2018-Jun-18 20:59N 51°13' E 004°24'0 0.0
2018-Jun-18 20:29N 51°13' E 004°24'0 0.0
2018-Jun-18 19:59N 51°13' E 004°24'0 0.0
2018-Jun-18 19:29N 51°13' E 004°24'0 0.2
2018-Jun-18 19:01N 51°13' E 004°24'2 3.2
2018-Jun-18 18:30N 51°14' E 004°22'3 6.9
2018-Jun-18 18:01N 51°17' E 004°19'5 9.5
2018-Jun-18 17:30N 51°21' E 004°14'5 9.9
2018-Jun-18 17:01N 51°22' E 004°07'612.5
2018-Jun-18 16:31N 51°26' E 003°59'815.5
2018-Jun-18 16:00N 51°21' E 003°49'713.6
2018-Jun-18 15:30N 51°25' E 003°40'611.5
2018-Jun-18 15:01N 51°25' E 003°31'918.5
2018-Jun-18 14:30N 51°24' E 003°16'918.6
2018-Jun-18 14:00N 51°24' E 003°02'916.4
2018-Jun-18 13:27N 51°21' E 002°48'4 9.7
2018-Jun-18 13:00N 51°22' E 002°41'713.6
2018-Jun-18 12:30N 51°22' E 002°30'612.8
2018-Jun-18 12:00N 51°20' E 002°20'612.8
2018-Jun-18 11:31N 51°18' E 002°10'713.3
2018-Jun-18 11:01N 51°22' E 002°02'713.1
2018-Jun-18 10:31N 51°27' E 001°56'611.3
2018-Jun-18 10:00N 51°29' E 001°47'713.2
2018-Jun-18 09:30N 51°23' E 001°42'713.2
2018-Jun-18 09:01N 51°25' E 001°32'714.1
2018-Jun-18 08:30N 51°28' E 001°22'816.4
2018-Jun-18 08:01N 51°29' E 001°09'815.4
2018-Jun-18 07:30N 51°29' E 000°57'917.6
2018-Jun-18 07:00N 51°30' E 000°43'917.1
2018-Jun-18 06:30N 51°30' E 000°29'510.8
2018-Jun-18 06:01N 51°27' E 000°22'4 8.9
2018-Jun-18 05:30N 51°28' E 000°15'510.3
2018-Jun-18 05:01N 51°31' E 000°08'3 0.1
2018-Jun-16 13:16N 51°30' E 000°04'2 8.9
2018-Jun-16 13:00N 51°31' E 000°07'5 9.5
2018-Jun-16 12:30N 51°29' E 000°14'510.3
2018-Jun-16 12:00N 51°27' E 000°22'4 8.5
2018-Jun-16 11:30N 51°29' E 000°28'5 9.4
2018-Jun-16 11:00N 51°30' E 000°35'611.9
2018-Jun-16 10:30N 51°30' E 000°44'713.2
2018-Jun-16 10:01N 51°29' E 000°55'713.5
2018-Jun-16 09:31N 51°30' E 001°06'713.1
2018-Jun-16 09:00N 51°29' E 001°16'714.3
2018-Jun-16 08:30N 51°28' E 001°27'611.8
2018-Jun-16 08:00N 51°29' E 001°37'510.9
2018-Jun-16 07:30N 51°31' E 001°45'5 9.6
2018-Jun-16 07:00N 51°32' E 001°52'510.1
2018-Jun-16 06:30N 51°34' E 002°00'510.1
2018-Jun-16 06:01N 51°36' E 002°07'510.5
2018-Jun-16 05:30N 51°40' E 002°13'510.6
2018-Jun-16 05:01N 51°44' E 002°19'510.8
2018-Jun-16 04:30N 51°48' E 002°25'3410.6
2018-Jun-16 01:20N 52°13' E 002°60'3 9.4
2018-Jun-16 00:58N 52°17' E 003°01'4 9.7
2018-Jun-16 00:30N 52°21' E 003°04'611.3
2018-Jun-16 00:00N 52°24' E 003°11'713.7
2018-Jun-15 23:30N 52°27' E 003°21'713.8
2018-Jun-15 23:01N 52°27' E 003°33'611.3
2018-Jun-15 22:30N 52°28' E 003°42'5 9.2
2018-Jun-15 22:00N 52°30' E 003°49'510.5
2018-Jun-15 21:30N 52°31' E 003°57'611.7
2018-Jun-15 21:00N 52°31' E 004°07'815.4
2018-Jun-15 20:30N 52°30' E 004°19'713.5
2018-Jun-15 20:00N 52°28' E 004°30'4 7.9
2018-Jun-15 19:31N 52°28' E 004°36'1 1.8
2018-Jun-15 19:00N 52°28' E 004°38'1 2.0
2018-Jun-15 18:30N 52°28' E 004°40'2 4.1
2018-Jun-15 18:01N 52°26' E 004°42'2 4.0
2018-Jun-15 17:31N 52°26' E 004°45'3 5.5
2018-Jun-15 17:01N 52°25' E 004°50'3 6.9
2018-Jun-15 16:31N 52°23' E 004°54'1 1.5
2018-Jun-15 15:59N 52°23' E 004°55'0 0.0
2018-Jun-15 15:29N 52°23' E 004°55'0 0.0
2018-Jun-15 14:56N 52°23' E 004°55'0 0.0
2018-Jun-15 14:29N 52°23' E 004°55'0 0.0
2018-Jun-15 13:59N 52°23' E 004°55'0 0.0
2018-Jun-15 13:29N 52°23' E 004°55'0 0.0
2018-Jun-15 12:59N 52°23' E 004°55'0 0.0
2018-Jun-15 12:26N 52°23' E 004°55'0 0.0
2018-Jun-15 11:56N 52°23' E 004°55'0 0.0
2018-Jun-15 11:29N 52°23' E 004°55'0 0.0
2018-Jun-15 10:59N 52°23' E 004°55'0 0.0
2018-Jun-15 10:29N 52°23' E 004°55'0 0.0
2018-Jun-15 09:56N 52°23' E 004°55'0 0.0
2018-Jun-15 09:26N 52°23' E 004°55'0 0.0
2018-Jun-15 08:56N 52°23' E 004°55'0 0.0
2018-Jun-15 08:29N 52°23' E 004°55'0 0.0
2018-Jun-15 07:59N 52°23' E 004°55'0 0.0
2018-Jun-15 07:29N 52°23' E 004°55'0 0.0
2018-Jun-15 06:59N 52°23' E 004°55'0 0.0
2018-Jun-15 06:29N 52°23' E 004°55'0 0.0
2018-Jun-15 05:59N 52°23' E 004°55'0 0.0
2018-Jun-15 05:29N 52°23' E 004°55'0 0.0
2018-Jun-15 04:59N 52°23' E 004°55'0 0.0
2018-Jun-15 04:26N 52°23' E 004°55'0 0.0
2018-Jun-15 03:59N 52°23' E 004°55'0 0.0
2018-Jun-15 03:29N 52°23' E 004°55'0 0.0
2018-Jun-15 02:56N 52°23' E 004°55'0 0.0
2018-Jun-15 02:29N 52°23' E 004°55'0 0.0
2018-Jun-15 01:56N 52°23' E 004°55'0 0.0
2018-Jun-15 01:29N 52°23' E 004°55'0 0.0
2018-Jun-15 00:59N 52°23' E 004°55'0 0.0
2018-Jun-15 00:29N 52°23' E 004°55'0 0.0
2018-Jun-14 23:59N 52°23' E 004°55'0 0.0
2018-Jun-14 23:29N 52°23' E 004°55'0 0.0
2018-Jun-14 22:59N 52°23' E 004°55'0 0.0
2018-Jun-14 22:29N 52°23' E 004°55'0 0.0
2018-Jun-14 21:59N 52°23' E 004°55'0 0.0
2018-Jun-14 21:26N 52°23' E 004°55'0 0.0
2018-Jun-14 20:59N 52°23' E 004°55'0 0.0
2018-Jun-14 20:29N 52°23' E 004°55'0 0.0
2018-Jun-14 19:56N 52°23' E 004°55'0 0.0
2018-Jun-14 19:29N 52°23' E 004°55'0 0.0
2018-Jun-14 18:56N 52°23' E 004°55'0 0.0
2018-Jun-14 18:29N 52°23' E 004°55'0 0.0
2018-Jun-14 17:59N 52°23' E 004°55'0 0.0
2018-Jun-14 17:29N 52°23' E 004°55'0 0.0
2018-Jun-14 16:59N 52°23' E 004°55'0 0.0
2018-Jun-14 16:26N 52°23' E 004°55'0 0.0
2018-Jun-14 15:59N 52°23' E 004°55'0 0.0
2018-Jun-14 15:29N 52°23' E 004°55'0 0.0
2018-Jun-14 14:56N 52°23' E 004°55'0 0.0
2018-Jun-14 14:29N 52°23' E 004°55'0 0.0
2018-Jun-14 13:53N 52°23' E 004°55'0 0.0
2018-Jun-14 13:29N 52°23' E 004°55'0 0.0
2018-Jun-14 12:59N 52°23' E 004°55'0 0.0
2018-Jun-14 12:29N 52°23' E 004°55'0 0.0
2018-Jun-14 11:59N 52°23' E 004°55'0 0.0
2018-Jun-14 11:26N 52°23' E 004°55'0 0.0
2018-Jun-14 10:59N 52°23' E 004°55'0 0.0
2018-Jun-14 10:29N 52°23' E 004°55'0 0.0
2018-Jun-14 09:59N 52°23' E 004°55'0 0.0
2018-Jun-14 09:29N 52°23' E 004°55'0 0.0
2018-Jun-14 08:59N 52°23' E 004°55'0 0.0
2018-Jun-14 08:29N 52°23' E 004°55'0 0.0
2018-Jun-14 07:59N 52°23' E 004°55'0 0.0
2018-Jun-14 07:29N 52°23' E 004°55'0 0.0
2018-Jun-14 06:59N 52°23' E 004°55'0 0.0
2018-Jun-14 06:29N 52°23' E 004°55'1 1.6
2018-Jun-14 06:00N 52°23' E 004°54'3 5.5
2018-Jun-14 05:30N 52°25' E 004°51'4 8.1
2018-Jun-14 05:00N 52°26' E 004°45'4 7.9
2018-Jun-14 04:30N 52°28' E 004°39'1 3.0
2018-Jun-14 04:00N 52°28' E 004°37'1 1.9
2018-Jun-14 03:30N 52°28' E 004°35'1 1.5
2018-Jun-14 03:00N 52°28' E 004°34'611.0
2018-Jun-14 02:30N 52°29' E 004°25'4 8.6
2018-Jun-14 02:00N 52°28' E 004°18'510.4
2018-Jun-14 01:30N 52°29' E 004°09'612.7
2018-Jun-14 01:00N 52°27' E 003°59'612.6
2018-Jun-14 00:30N 52°26' E 003°49'611.8
2018-Jun-14 00:00N 52°22' E 003°42'712.9
2018-Jun-13 23:30N 52°17' E 003°37'612.6
2018-Jun-13 23:00N 52°11' E 003°31'612.9
2018-Jun-13 22:30N 52°06' E 003°26'611.1
2018-Jun-13 22:00N 52°00' E 003°23'612.3
2018-Jun-13 21:30N 51°54' E 003°22'612.3
2018-Jun-13 21:00N 51°49' E 003°18'712.4
2018-Jun-13 20:28N 51°43' E 003°14'612.4
2018-Jun-13 19:59N 51°37' E 003°11'612.1
2018-Jun-13 19:30N 51°32' E 003°07'612.4
2018-Jun-13 19:00N 51°28' E 002°59'612.5
2018-Jun-13 18:30N 51°26' E 002°50'5 9.4
2018-Jun-13 18:00N 51°22' E 002°46'612.1
2018-Jun-13 17:30N 51°17' E 002°52'4 8.0
2018-Jun-13 17:01N 51°14' E 002°56'0 0.2
2018-Jun-13 16:28N 51°14' E 002°56'0 0.0
2018-Jun-13 15:58N 51°14' E 002°56'0 0.0
2018-Jun-13 15:28N 51°14' E 002°56'0 0.0
2018-Jun-13 14:58N 51°14' E 002°56'0 0.0
2018-Jun-13 14:28N 51°14' E 002°56'0 0.0
2018-Jun-13 13:58N 51°14' E 002°56'0 0.0
2018-Jun-13 13:28N 51°14' E 002°56'0 0.0
2018-Jun-13 12:58N 51°14' E 002°56'0 0.0
2018-Jun-13 12:25N 51°14' E 002°56'0 0.0
2018-Jun-13 11:58N 51°14' E 002°56'0 0.0
2018-Jun-13 11:28N 51°14' E 002°56'0 0.0
2018-Jun-13 10:58N 51°14' E 002°56'0 0.0
2018-Jun-13 10:28N 51°14' E 002°56'0 0.0
2018-Jun-13 09:58N 51°14' E 002°56'0 0.0
2018-Jun-13 09:28N 51°14' E 002°56'0 0.0
2018-Jun-13 08:58N 51°14' E 002°56'0 0.0
2018-Jun-13 08:25N 51°14' E 002°56'0 0.0
2018-Jun-13 07:58N 51°14' E 002°56'0 0.0
2018-Jun-13 07:28N 51°14' E 002°56'0 0.0
2018-Jun-13 06:58N 51°14' E 002°56'0 0.0
2018-Jun-13 06:30N 51°14' E 002°56'2 3.1
2018-Jun-13 06:00N 51°15' E 002°54'611.4
2018-Jun-13 05:30N 51°20' E 002°49'510.1
2018-Jun-13 04:58N 51°21' E 002°41'612.0
2018-Jun-13 04:30N 51°22' E 002°32'612.0
2018-Jun-13 04:00N 51°20' E 002°23'612.4
2018-Jun-13 03:30N 51°16' E 002°14'613.1
2018-Jun-13 03:00N 51°12' E 002°06'713.5
2018-Jun-13 02:30N 51°09' E 001°56'816.7
2018-Jun-13 02:00N 51°05' E 001°45'917.8
2018-Jun-13 01:30N 50°60' E 001°34'917.7
2018-Jun-13 01:00N 50°52' E 001°26'6216.7
2018-Jun-12 21:16N 50°18' E 000°04'1416.6
2018-Jun-12 20:26N 50°06' W 000°06'818.3
2018-Jun-12 20:00N 49°58' W 000°07'918.4
2018-Jun-12 19:30N 49°49' W 000°09'918.1
2018-Jun-12 19:00N 49°40' W 000°07'917.5
2018-Jun-12 18:30N 49°31' W 000°06'713.2
2018-Jun-12 18:00N 49°27' E 000°02'611.3
2018-Jun-12 17:30N 49°26' E 000°11'2 4.4
2018-Jun-12 16:59N 49°26' E 000°14'0 0.0
2018-Jun-12 16:29N 49°26' E 000°14'0 0.0
2018-Jun-12 15:59N 49°26' E 000°14'0 0.0
2018-Jun-12 15:29N 49°26' E 000°14'0 0.0
2018-Jun-12 14:59N 49°26' E 000°14'0 0.0
2018-Jun-12 14:29N 49°26' E 000°14'0 0.0
2018-Jun-12 13:59N 49°26' E 000°14'0 0.0
2018-Jun-12 13:29N 49°26' E 000°14'0 0.0
2018-Jun-12 12:56N 49°26' E 000°14'0 0.0
2018-Jun-12 12:29N 49°26' E 000°14'0 0.0
2018-Jun-12 11:59N 49°26' E 000°14'0 0.0
2018-Jun-12 11:29N 49°26' E 000°14'0 0.0
2018-Jun-12 10:59N 49°26' E 000°14'0 0.0
2018-Jun-12 10:29N 49°26' E 000°14'0 0.0
2018-Jun-12 09:59N 49°26' E 000°14'0 0.0
2018-Jun-12 09:29N 49°26' E 000°14'0 0.0
2018-Jun-12 08:59N 49°26' E 000°14'0 0.0
2018-Jun-12 08:29N 49°26' E 000°14'0 0.0
2018-Jun-12 07:59N 49°26' E 000°14'0 0.0
2018-Jun-12 07:29N 49°26' E 000°14'0 0.0
2018-Jun-12 06:59N 49°26' E 000°14'0 0.0
2018-Jun-12 06:29N 49°26' E 000°14'0 0.0
2018-Jun-12 05:59N 49°26' E 000°14'0 0.1
2018-Jun-12 05:31N 49°26' E 000°14'4 8.5
2018-Jun-12 05:00N 49°26' E 000°08'613.1
2018-Jun-12 04:31N 49°28' W 000°02'510.2
2018-Jun-12 04:00N 49°30' W 000°09'510.9
2018-Jun-12 03:30N 49°33' W 000°17'611.4
2018-Jun-12 03:01N 49°36' W 000°24'611.1
2018-Jun-12 02:30N 49°39' W 000°31'4 7.0
2018-Jun-12 02:00N 49°40' W 000°36'4 7.4
2018-Jun-12 01:31N 49°43' W 000°40'3 6.5
2018-Jun-12 01:00N 49°45' W 000°44'3 6.0
2018-Jun-12 00:30N 49°46' W 000°48'3 5.8
2018-Jun-12 00:00N 49°48' W 000°52'3 6.2
2018-Jun-11 23:30N 49°49' W 000°56'3 6.2
2018-Jun-11 23:00N 49°51' W 001°00'3 6.2
2018-Jun-11 22:30N 49°51' W 001°05'3 6.4
2018-Jun-11 22:00N 49°50' W 001°10'4 7.8
2018-Jun-11 21:30N 49°48' W 001°15'4 7.7
2018-Jun-11 21:00N 49°47' W 001°21'6374.1
2018-Jun-11 21:00N 49°42' W 001°18'713.6 030 / 151011.810.8 15.015.014.0
2018-Jun-11 20:30N 49°46' W 001°26'4 7.6
2018-Jun-11 20:00N 49°44' W 001°32'4 8.3
2018-Jun-11 19:30N 49°42' W 001°37'3 6.3
2018-Jun-11 19:00N 49°39' W 001°37'0 0.5
2018-Jun-11 18:29N 49°39' W 001°37'0 0.0
2018-Jun-11 17:59N 49°39' W 001°37'0 0.0
2018-Jun-11 17:29N 49°39' W 001°37'0 0.0
2018-Jun-11 16:59N 49°39' W 001°37'0 0.0
2018-Jun-11 16:29N 49°39' W 001°37'0 0.0
2018-Jun-11 15:59N 49°39' W 001°37'0 0.0
2018-Jun-11 15:29N 49°39' W 001°37'0 0.0
2018-Jun-11 14:59N 49°39' W 001°37'0 0.0
2018-Jun-11 14:29N 49°39' W 001°37'0 0.0
2018-Jun-11 13:59N 49°39' W 001°37'0 0.0
2018-Jun-11 13:29N 49°39' W 001°37'0 0.0
2018-Jun-11 12:59N 49°39' W 001°37'0 0.0
2018-Jun-11 12:29N 49°39' W 001°37'0 0.0
2018-Jun-11 11:59N 49°39' W 001°37'0 0.0
2018-Jun-11 11:29N 49°39' W 001°37'0 0.0
2018-Jun-11 10:59N 49°39' W 001°37'0 0.0
2018-Jun-11 10:29N 49°39' W 001°37'0 0.0
2018-Jun-11 09:59N 49°39' W 001°37'0 0.0
2018-Jun-11 09:29N 49°39' W 001°37'0 0.0
2018-Jun-11 08:59N 49°39' W 001°37'0 0.0
2018-Jun-11 08:29N 49°39' W 001°37'0 0.0
2018-Jun-11 08:00N 49°39' W 001°37'0 0.0
2018-Jun-11 07:29N 49°39' W 001°37'0 0.0
2018-Jun-11 06:59N 49°39' W 001°37'0 0.0
2018-Jun-11 06:29N 49°39' W 001°37'0 0.0
2018-Jun-11 05:59N 49°39' W 001°37'0 0.0
2018-Jun-11 05:29N 49°39' W 001°37'0 0.0
2018-Jun-11 04:59N 49°39' W 001°37'0 0.4
2018-Jun-11 04:30N 49°39' W 001°37'3 6.4
2018-Jun-11 04:00N 49°42' W 001°40'713.8
2018-Jun-11 03:30N 49°48' W 001°40'713.2
2018-Jun-11 03:00N 49°55' W 001°40'5 9.2
2018-Jun-11 02:30N 49°57' W 001°47'4 8.4
2018-Jun-11 02:01N 49°58' W 001°53'4 7.5
2018-Jun-11 01:30N 49°58' W 001°59'3 6.6
2018-Jun-11 01:00N 49°58' W 002°04'4 7.9
2018-Jun-11 00:30N 49°54' W 002°05'4 7.7
2018-Jun-11 00:00N 49°50' W 002°05'14 7.2
2018-Jun-10 22:00N 49°36' W 002°06'7 6.2 040 / 141011.8 2.2 14.014.013.0
2018-Jun-10 20:51N 49°37' W 002°17'2 6.7
2018-Jun-10 20:30N 49°34' W 002°18'4 7.1
2018-Jun-10 20:00N 49°31' W 002°20'4 7.2
2018-Jun-10 19:30N 49°28' W 002°23'4 8.1
2018-Jun-10 19:00N 49°25' W 002°27'3 2.4
2018-Jun-10 17:50N 49°28' W 002°30'0 0.0
2018-Jun-10 17:08N 49°28' W 002°30'0 0.0
2018-Jun-10 16:56N 49°28' W 002°30'0 0.0
2018-Jun-10 16:20N 49°28' W 002°30'0 0.0
2018-Jun-10 15:56N 49°28' W 002°30'0 0.0
2018-Jun-10 15:20N 49°28' W 002°30'0 0.0
2018-Jun-10 13:50N 49°28' W 002°30'0 0.0
2018-Jun-10 13:08N 49°28' W 002°30'0 0.1
2018-Jun-10 12:56N 49°28' W 002°30'0 0.0
2018-Jun-10 12:26N 49°28' W 002°30'0 0.0
2018-Jun-10 11:50N 49°28' W 002°30'0 0.0
2018-Jun-10 11:26N 49°28' W 002°30'0 0.0
2018-Jun-10 10:44N 49°28' W 002°30'0 0.1
2018-Jun-10 10:24N 49°28' W 002°30'3 6.4
2018-Jun-10 10:00N 49°25' W 002°30'510.1
2018-Jun-10 09:28N 49°21' W 002°36'712.6
2018-Jun-10 08:54N 49°18' W 002°45'1112.8
2018-Jun-10 08:04N 49°17' W 003°02'612.6
2018-Jun-10 07:37N 49°15' W 003°10'5612.4
2018-Jun-10 03:06N 48°51' W 004°27'214.7
2018-Jun-10 02:59N 48°51' W 004°30'714.7
2018-Jun-10 02:31N 48°50' W 004°40'714.2
2018-Jun-10 02:00N 48°45' W 004°49'  
Track history (hours):
 
Tides and Currents Weather Stations Pressure Air Temp Water Temp Dewpoint Dewpoint Depression Visibility Wind Speed Wind Dir Waves Ship Positions

Azamara Journey

Last reported at 2018-Jun-20 02:00 UTC. Time now 2018-Jun-20 02:09 UTC.
Position N 52°29' E 004°08'.

Type: Ship. MMSI: 256204000.

Date/timePositionNaut miles runAvg speedWind from/ knotsBaromVisibWave heightAir tempDewpointWater temp
2018-Jun-20 02:00N 52°29' E 004°08'816.3
2018-Jun-20 01:30N 52°27' E 003°55'5 9.9
2018-Jun-20 01:00N 52°26' E 003°47'510.3
2018-Jun-20 00:30N 52°22' E 003°41'611.0
2018-Jun-20 00:00N 52°18' E 003°36'611.3
2018-Jun-19 23:31N 52°13' E 003°31'713.6
2018-Jun-19 23:00N 52°06' E 003°27'612.0
2018-Jun-19 22:30N 52°01' E 003°24'610.9
2018-Jun-19 21:57N 51°55' E 003°21'710.3
2018-Jun-19 21:18N 51°49' E 003°18'511.3
2018-Jun-19 20:54N 51°44' E 003°16'4 8.4
2018-Jun-19 20:29N 51°41' E 003°16'714.3
2018-Jun-19 19:58N 51°35' E 003°23'817.6
2018-Jun-19 19:30N 51°28' E 003°31'612.1
2018-Jun-19 19:00N 51°25' E 003°39'816.6
2018-Jun-19 18:31N 51°21' E 003°50'612.4
2018-Jun-19 18:00N 51°25' E 003°58'3 6.8
2018-Jun-19 17:30N 51°23' E 004°02'510.4
2018-Jun-19 17:01N 51°24' E 004°11'4 8.8
2018-Jun-19 16:31N 51°21' E 004°16'4 7.5
2018-Jun-19 16:00N 51°17' E 004°19'4 7.0
2018-Jun-19 15:30N 51°14' E 004°22'2 3.3
2018-Jun-19 14:59N 51°13' E 004°24'0 0.0
2018-Jun-19 14:29N 51°13' E 004°24'0 0.0
2018-Jun-19 13:59N 51°13' E 004°24'0 0.0
2018-Jun-19 13:29N 51°13' E 004°24'0 0.0
2018-Jun-19 12:59N 51°13' E 004°24'0 0.0
2018-Jun-19 12:29N 51°13' E 004°24'0 0.0
2018-Jun-19 11:59N 51°13' E 004°24'0 0.0
2018-Jun-19 11:29N 51°13' E 004°24'0 0.0
2018-Jun-19 10:59N 51°13' E 004°24'0 0.0
2018-Jun-19 10:29N 51°13' E 004°24'0 0.0
2018-Jun-19 09:59N 51°13' E 004°24'0 0.0
2018-Jun-19 09:29N 51°13' E 004°24'0 0.0
2018-Jun-19 08:59N 51°13' E 004°24'0 0.0
2018-Jun-19 08:29N 51°13' E 004°24'0 0.0
2018-Jun-19 07:59N 51°13' E 004°24'0 0.0
2018-Jun-19 07:23N 51°13' E 004°24'0 0.0
2018-Jun-19 06:59N 51°13' E 004°24'0 0.0
2018-Jun-19 06:29N 51°13' E 004°24'0 0.0
2018-Jun-19 05:56N 51°13' E 004°24'0 0.0
2018-Jun-19 05:29N 51°13' E 004°24'0 0.0
2018-Jun-19 04:59N 51°13' E 004°24'0 0.0
2018-Jun-19 04:29N 51°13' E 004°24'0 0.0
2018-Jun-19 03:56N 51°13' E 004°24'0 0.0
2018-Jun-19 03:23N 51°13' E 004°24'0 0.0
2018-Jun-19 02:56N 51°13' E 004°24'0 0.0
2018-Jun-19 02:29N 51°13' E 004°24'0 0.0
2018-Jun-19 01:59N 51°13' E 004°24'0 0.0
2018-Jun-19 01:29N 51°13' E 004°24'0 0.0
2018-Jun-19 00:59N 51°13' E 004°24'0 0.0
2018-Jun-19 00:29N 51°13' E 004°24'0 0.0
2018-Jun-18 23:59N 51°13' E 004°24'0 0.0
2018-Jun-18 23:26N 51°13' E 004°24'0 0.0
2018-Jun-18 22:53N 51°13' E 004°24'0 0.0
2018-Jun-18 22:29N 51°13' E 004°24'0 0.0
2018-Jun-18 21:50N 51°13' E 004°24'0 0.0
2018-Jun-18 21:29N 51°13' E 004°24'0 0.0
2018-Jun-18 20:59N 51°13' E 004°24'0 0.0
2018-Jun-18 20:29N 51°13' E 004°24'0 0.0
2018-Jun-18 19:59N 51°13' E 004°24'0 0.0
2018-Jun-18 19:29N 51°13' E 004°24'0 0.2
2018-Jun-18 19:01N 51°13' E 004°24'2 3.2
2018-Jun-18 18:30N 51°14' E 004°22'3 6.9
2018-Jun-18 18:01N 51°17' E 004°19'5 9.5
2018-Jun-18 17:30N 51°21' E 004°14'5 9.9
2018-Jun-18 17:01N 51°22' E 004°07'612.5
2018-Jun-18 16:31N 51°26' E 003°59'815.5
2018-Jun-18 16:00N 51°21' E 003°49'713.6
2018-Jun-18 15:30N 51°25' E 003°40'611.5
2018-Jun-18 15:01N 51°25' E 003°31'918.5
2018-Jun-18 14:30N 51°24' E 003°16'918.6
2018-Jun-18 14:00N 51°24' E 003°02'916.4
2018-Jun-18 13:27N 51°21' E 002°48'4 9.7
2018-Jun-18 13:00N 51°22' E 002°41'713.6
2018-Jun-18 12:30N 51°22' E 002°30'612.8
2018-Jun-18 12:00N 51°20' E 002°20'612.8
2018-Jun-18 11:31N 51°18' E 002°10'713.3
2018-Jun-18 11:01N 51°22' E 002°02'713.1
2018-Jun-18 10:31N 51°27' E 001°56'611.3
2018-Jun-18 10:00N 51°29' E 001°47'713.2
2018-Jun-18 09:30N 51°23' E 001°42'713.2
2018-Jun-18 09:01N 51°25' E 001°32'714.1
2018-Jun-18 08:30N 51°28' E 001°22'816.4
2018-Jun-18 08:01N 51°29' E 001°09'815.4
2018-Jun-18 07:30N 51°29' E 000°57'917.6
2018-Jun-18 07:00N 51°30' E 000°43'917.1
2018-Jun-18 06:30N 51°30' E 000°29'510.8
2018-Jun-18 06:01N 51°27' E 000°22'4 8.9
2018-Jun-18 05:30N 51°28' E 000°15'510.3
2018-Jun-18 05:01N 51°31' E 000°08'3 0.1
2018-Jun-16 13:16N 51°30' E 000°04'2 8.9
2018-Jun-16 13:00N 51°31' E 000°07'5 9.5
2018-Jun-16 12:30N 51°29' E 000°14'510.3
2018-Jun-16 12:00N 51°27' E 000°22'4 8.5
2018-Jun-16 11:30N 51°29' E 000°28'5 9.4
2018-Jun-16 11:00N 51°30' E 000°35'611.9
2018-Jun-16 10:30N 51°30' E 000°44'713.2
2018-Jun-16 10:01N 51°29' E 000°55'713.5
2018-Jun-16 09:31N 51°30' E 001°06'713.1
2018-Jun-16 09:00N 51°29' E 001°16'714.3
2018-Jun-16 08:30N 51°28' E 001°27'611.8
2018-Jun-16 08:00N 51°29' E 001°37'510.9
2018-Jun-16 07:30N 51°31' E 001°45'5 9.6
2018-Jun-16 07:00N 51°32' E 001°52'510.1
2018-Jun-16 06:30N 51°34' E 002°00'510.1
2018-Jun-16 06:01N 51°36' E 002°07'510.5
2018-Jun-16 05:30N 51°40' E 002°13'510.6
2018-Jun-16 05:01N 51°44' E 002°19'510.8
2018-Jun-16 04:30N 51°48' E 002°25'3410.6
2018-Jun-16 01:20N 52°13' E 002°60'3 9.4
2018-Jun-16 00:58N 52°17' E 003°01'4 9.7
2018-Jun-16 00:30N 52°21' E 003°04'611.3
2018-Jun-16 00:00N 52°24' E 003°11'713.7
2018-Jun-15 23:30N 52°27' E 003°21'713.8
2018-Jun-15 23:01N 52°27' E 003°33'611.3
2018-Jun-15 22:30N 52°28' E 003°42'5 9.2
2018-Jun-15 22:00N 52°30' E 003°49'510.5
2018-Jun-15 21:30N 52°31' E 003°57'611.7
2018-Jun-15 21:00N 52°31' E 004°07'815.4
2018-Jun-15 20:30N 52°30' E 004°19'713.5
2018-Jun-15 20:00N 52°28' E 004°30'4 7.9
2018-Jun-15 19:31N 52°28' E 004°36'1 1.8
2018-Jun-15 19:00N 52°28' E 004°38'1 2.0
2018-Jun-15 18:30N 52°28' E 004°40'2 4.1
2018-Jun-15 18:01N 52°26' E 004°42'2 4.0
2018-Jun-15 17:31N 52°26' E 004°45'3 5.5
2018-Jun-15 17:01N 52°25' E 004°50'3 6.9
2018-Jun-15 16:31N 52°23' E 004°54'1 1.5
2018-Jun-15 15:59N 52°23' E 004°55'0 0.0
2018-Jun-15 15:29N 52°23' E 004°55'0 0.0
2018-Jun-15 14:56N 52°23' E 004°55'0 0.0
2018-Jun-15 14:29N 52°23' E 004°55'0 0.0
2018-Jun-15 13:59N 52°23' E 004°55'0 0.0
2018-Jun-15 13:29N 52°23' E 004°55'0 0.0
2018-Jun-15 12:59N 52°23' E 004°55'0 0.0
2018-Jun-15 12:26N 52°23' E 004°55'0 0.0
2018-Jun-15 11:56N 52°23' E 004°55'0 0.0
2018-Jun-15 11:29N 52°23' E 004°55'0 0.0
2018-Jun-15 10:59N 52°23' E 004°55'0 0.0
2018-Jun-15 10:29N 52°23' E 004°55'0 0.0
2018-Jun-15 09:56N 52°23' E 004°55'0 0.0
2018-Jun-15 09:26N 52°23' E 004°55'0 0.0
2018-Jun-15 08:56N 52°23' E 004°55'0 0.0
2018-Jun-15 08:29N 52°23' E 004°55'0 0.0
2018-Jun-15 07:59N 52°23' E 004°55'0 0.0
2018-Jun-15 07:29N 52°23' E 004°55'0 0.0
2018-Jun-15 06:59N 52°23' E 004°55'0 0.0
2018-Jun-15 06:29N 52°23' E 004°55'0 0.0
2018-Jun-15 05:59N 52°23' E 004°55'0 0.0
2018-Jun-15 05:29N 52°23' E 004°55'0 0.0
2018-Jun-15 04:59N 52°23' E 004°55'0 0.0
2018-Jun-15 04:26N 52°23' E 004°55'0 0.0
2018-Jun-15 03:59N 52°23' E 004°55'0 0.0
2018-Jun-15 03:29N 52°23' E 004°55'0 0.0
2018-Jun-15 02:56N 52°23' E 004°55'0 0.0
2018-Jun-15 02:29N 52°23' E 004°55'0 0.0
2018-Jun-15 01:56N 52°23' E 004°55'0 0.0
2018-Jun-15 01:29N 52°23' E 004°55'0 0.0
2018-Jun-15 00:59N 52°23' E 004°55'0 0.0
2018-Jun-15 00:29N 52°23' E 004°55'0 0.0
2018-Jun-14 23:59N 52°23' E 004°55'0 0.0
2018-Jun-14 23:29N 52°23' E 004°55'0 0.0
2018-Jun-14 22:59N 52°23' E 004°55'0 0.0
2018-Jun-14 22:29N 52°23' E 004°55'0 0.0
2018-Jun-14 21:59N 52°23' E 004°55'0 0.0
2018-Jun-14 21:26N 52°23' E 004°55'0 0.0
2018-Jun-14 20:59N 52°23' E 004°55'0 0.0
2018-Jun-14 20:29N 52°23' E 004°55'0 0.0
2018-Jun-14 19:56N 52°23' E 004°55'0 0.0
2018-Jun-14 19:29N 52°23' E 004°55'0 0.0
2018-Jun-14 18:56N 52°23' E 004°55'0 0.0
2018-Jun-14 18:29N 52°23' E 004°55'0 0.0
2018-Jun-14 17:59N 52°23' E 004°55'0 0.0
2018-Jun-14 17:29N 52°23' E 004°55'0 0.0
2018-Jun-14 16:59N 52°23' E 004°55'0 0.0
2018-Jun-14 16:26N 52°23' E 004°55'0 0.0
2018-Jun-14 15:59N 52°23' E 004°55'0 0.0
2018-Jun-14 15:29N 52°23' E 004°55'0 0.0
2018-Jun-14 14:56N 52°23' E 004°55'0 0.0
2018-Jun-14 14:29N 52°23' E 004°55'0 0.0
2018-Jun-14 13:53N 52°23' E 004°55'0 0.0
2018-Jun-14 13:29N 52°23' E 004°55'0 0.0
2018-Jun-14 12:59N 52°23' E 004°55'0 0.0
2018-Jun-14 12:29N 52°23' E 004°55'0 0.0
2018-Jun-14 11:59N 52°23' E 004°55'0 0.0
2018-Jun-14 11:26N 52°23' E 004°55'0 0.0
2018-Jun-14 10:59N 52°23' E 004°55'0 0.0
2018-Jun-14 10:29N 52°23' E 004°55'0 0.0
2018-Jun-14 09:59N 52°23' E 004°55'0 0.0
2018-Jun-14 09:29N 52°23' E 004°55'0 0.0
2018-Jun-14 08:59N 52°23' E 004°55'0 0.0
2018-Jun-14 08:29N 52°23' E 004°55'0 0.0
2018-Jun-14 07:59N 52°23' E 004°55'0 0.0
2018-Jun-14 07:29N 52°23' E 004°55'0 0.0
2018-Jun-14 06:59N 52°23' E 004°55'0 0.0
2018-Jun-14 06:29N 52°23' E 004°55'1 1.6
2018-Jun-14 06:00N 52°23' E 004°54'3 5.5
2018-Jun-14 05:30N 52°25' E 004°51'4 8.1
2018-Jun-14 05:00N 52°26' E 004°45'4 7.9
2018-Jun-14 04:30N 52°28' E 004°39'1 3.0
2018-Jun-14 04:00N 52°28' E 004°37'1 1.9
2018-Jun-14 03:30N 52°28' E 004°35'1 1.5
2018-Jun-14 03:00N 52°28' E 004°34'611.0
2018-Jun-14 02:30N 52°29' E 004°25'4 8.6
2018-Jun-14 02:00N 52°28' E 004°18'510.4
2018-Jun-14 01:30N 52°29' E 004°09'612.7
2018-Jun-14 01:00N 52°27' E 003°59'612.6
2018-Jun-14 00:30N 52°26' E 003°49'611.8
2018-Jun-14 00:00N 52°22' E 003°42'712.9
2018-Jun-13 23:30N 52°17' E 003°37'612.6
2018-Jun-13 23:00N 52°11' E 003°31'612.9
2018-Jun-13 22:30N 52°06' E 003°26'611.1
2018-Jun-13 22:00N 52°00' E 003°23'612.3
2018-Jun-13 21:30N 51°54' E 003°22'612.3
2018-Jun-13 21:00N 51°49' E 003°18'712.4
2018-Jun-13 20:28N 51°43' E 003°14'612.4
2018-Jun-13 19:59N 51°37' E 003°11'612.1
2018-Jun-13 19:30N 51°32' E 003°07'612.4
2018-Jun-13 19:00N 51°28' E 002°59'612.5
2018-Jun-13 18:30N 51°26' E 002°50'5 9.4
2018-Jun-13 18:00N 51°22' E 002°46'612.1
2018-Jun-13 17:30N 51°17' E 002°52'4 8.0
2018-Jun-13 17:01N 51°14' E 002°56'0 0.2
2018-Jun-13 16:28N 51°14' E 002°56'0 0.0
2018-Jun-13 15:58N 51°14' E 002°56'0 0.0
2018-Jun-13 15:28N 51°14' E 002°56'0 0.0
2018-Jun-13 14:58N 51°14' E 002°56'0 0.0
2018-Jun-13 14:28N 51°14' E 002°56'0 0.0
2018-Jun-13 13:58N 51°14' E 002°56'0 0.0
2018-Jun-13 13:28N 51°14' E 002°56'0 0.0
2018-Jun-13 12:58N 51°14' E 002°56'0 0.0
2018-Jun-13 12:25N 51°14' E 002°56'0 0.0
2018-Jun-13 11:58N 51°14' E 002°56'0 0.0
2018-Jun-13 11:28N 51°14' E 002°56'0 0.0
2018-Jun-13 10:58N 51°14' E 002°56'0 0.0
2018-Jun-13 10:28N 51°14' E 002°56'0 0.0
2018-Jun-13 09:58N 51°14' E 002°56'0 0.0
2018-Jun-13 09:28N 51°14' E 002°56'0 0.0
2018-Jun-13 08:58N 51°14' E 002°56'0 0.0
2018-Jun-13 08:25N 51°14' E 002°56'0 0.0
2018-Jun-13 07:58N 51°14' E 002°56'0 0.0
2018-Jun-13 07:28N 51°14' E 002°56'0 0.0
2018-Jun-13 06:58N 51°14' E 002°56'0 0.0
2018-Jun-13 06:30N 51°14' E 002°56'2 3.1
2018-Jun-13 06:00N 51°15' E 002°54'611.4
2018-Jun-13 05:30N 51°20' E 002°49'510.1
2018-Jun-13 04:58N 51°21' E 002°41'612.0
2018-Jun-13 04:30N 51°22' E 002°32'612.0
2018-Jun-13 04:00N 51°20' E 002°23'612.4
2018-Jun-13 03:30N 51°16' E 002°14'613.1
2018-Jun-13 03:00N 51°12' E 002°06'713.5
2018-Jun-13 02:30N 51°09' E 001°56'816.7
2018-Jun-13 02:00N 51°05' E 001°45'917.8
2018-Jun-13 01:30N 50°60' E 001°34'917.7
2018-Jun-13 01:00N 50°52' E 001°26'6216.7
2018-Jun-12 21:16N 50°18' E 000°04'1416.6
2018-Jun-12 20:26N 50°06' W 000°06'818.3
2018-Jun-12 20:00N 49°58' W 000°07'918.4
2018-Jun-12 19:30N 49°49' W 000°09'918.1
2018-Jun-12 19:00N 49°40' W 000°07'917.5
2018-Jun-12 18:30N 49°31' W 000°06'713.2
2018-Jun-12 18:00N 49°27' E 000°02'611.3
2018-Jun-12 17:30N 49°26' E 000°11'2 4.4
2018-Jun-12 16:59N 49°26' E 000°14'0 0.0
2018-Jun-12 16:29N 49°26' E 000°14'0 0.0
2018-Jun-12 15:59N 49°26' E 000°14'0 0.0
2018-Jun-12 15:29N 49°26' E 000°14'0 0.0
2018-Jun-12 14:59N 49°26' E 000°14'0 0.0
2018-Jun-12 14:29N 49°26' E 000°14'0 0.0
2018-Jun-12 13:59N 49°26' E 000°14'0 0.0
2018-Jun-12 13:29N 49°26' E 000°14'0 0.0
2018-Jun-12 12:56N 49°26' E 000°14'0 0.0
2018-Jun-12 12:29N 49°26' E 000°14'0 0.0
2018-Jun-12 11:59N 49°26' E 000°14'0 0.0
2018-Jun-12 11:29N 49°26' E 000°14'0 0.0
2018-Jun-12 10:59N 49°26' E 000°14'0 0.0
2018-Jun-12 10:29N 49°26' E 000°14'0 0.0
2018-Jun-12 09:59N 49°26' E 000°14'0 0.0
2018-Jun-12 09:29N 49°26' E 000°14'0 0.0
2018-Jun-12 08:59N 49°26' E 000°14'0 0.0
2018-Jun-12 08:29N 49°26' E 000°14'0 0.0
2018-Jun-12 07:59N 49°26' E 000°14'0 0.0
2018-Jun-12 07:29N 49°26' E 000°14'0 0.0
2018-Jun-12 06:59N 49°26' E 000°14'0 0.0
2018-Jun-12 06:29N 49°26' E 000°14'0 0.0
2018-Jun-12 05:59N 49°26' E 000°14'0 0.1
2018-Jun-12 05:31N 49°26' E 000°14'4 8.5
2018-Jun-12 05:00N 49°26' E 000°08'613.1
2018-Jun-12 04:31N 49°28' W 000°02'510.2
2018-Jun-12 04:00N 49°30' W 000°09'510.9
2018-Jun-12 03:30N 49°33' W 000°17'611.4
2018-Jun-12 03:01N 49°36' W 000°24'611.1
2018-Jun-12 02:30N 49°39' W 000°31'4 7.0
2018-Jun-12 02:00N 49°40' W 000°36'4 7.4
2018-Jun-12 01:31N 49°43' W 000°40'3 6.5
2018-Jun-12 01:00N 49°45' W 000°44'3 6.0
2018-Jun-12 00:30N 49°46' W 000°48'3 5.8
2018-Jun-12 00:00N 49°48' W 000°52'3 6.2
2018-Jun-11 23:30N 49°49' W 000°56'3 6.2
2018-Jun-11 23:00N 49°51' W 001°00'3 6.2
2018-Jun-11 22:30N 49°51' W 001°05'3 6.4
2018-Jun-11 22:00N 49°50' W 001°10'4 7.8
2018-Jun-11 21:30N 49°48' W 001°15'4 7.7
2018-Jun-11 21:00N 49°47' W 001°21'6374.1
2018-Jun-11 21:00N 49°42' W 001°18'713.6 030 / 151011.810.8 15.015.014.0
2018-Jun-11 20:30N 49°46' W 001°26'4 7.6
2018-Jun-11 20:00N 49°44' W 001°32'4 8.3
2018-Jun-11 19:30N 49°42' W 001°37'3 6.3
2018-Jun-11 19:00N 49°39' W 001°37'0 0.5
2018-Jun-11 18:29N 49°39' W 001°37'0 0.0
2018-Jun-11 17:59N 49°39' W 001°37'0 0.0
2018-Jun-11 17:29N 49°39' W 001°37'0 0.0
2018-Jun-11 16:59N 49°39' W 001°37'0 0.0
2018-Jun-11 16:29N 49°39' W 001°37'0 0.0
2018-Jun-11 15:59N 49°39' W 001°37'0 0.0
2018-Jun-11 15:29N 49°39' W 001°37'0 0.0
2018-Jun-11 14:59N 49°39' W 001°37'0 0.0
2018-Jun-11 14:29N 49°39' W 001°37'0 0.0
2018-Jun-11 13:59N 49°39' W 001°37'0 0.0
2018-Jun-11 13:29N 49°39' W 001°37'0 0.0
2018-Jun-11 12:59N 49°39' W 001°37'0 0.0
2018-Jun-11 12:29N 49°39' W 001°37'0 0.0
2018-Jun-11 11:59N 49°39' W 001°37'0 0.0
2018-Jun-11 11:29N 49°39' W 001°37'0 0.0
2018-Jun-11 10:59N 49°39' W 001°37'0 0.0
2018-Jun-11 10:29N 49°39' W 001°37'0 0.0
2018-Jun-11 09:59N 49°39' W 001°37'0 0.0
2018-Jun-11 09:29N 49°39' W 001°37'0 0.0
2018-Jun-11 08:59N 49°39' W 001°37'0 0.0
2018-Jun-11 08:29N 49°39' W 001°37'0 0.0
2018-Jun-11 08:00N 49°39' W 001°37'0 0.0
2018-Jun-11 07:29N 49°39' W 001°37'0 0.0
2018-Jun-11 06:59N 49°39' W 001°37'0 0.0
2018-Jun-11 06:29N 49°39' W 001°37'0 0.0
2018-Jun-11 05:59N 49°39' W 001°37'0 0.0
2018-Jun-11 05:29N 49°39' W 001°37'0 0.0
2018-Jun-11 04:59N 49°39' W 001°37'0 0.4
2018-Jun-11 04:30N 49°39' W 001°37'3 6.4
2018-Jun-11 04:00N 49°42' W 001°40'713.8
2018-Jun-11 03:30N 49°48' W 001°40'713.2
2018-Jun-11 03:00N 49°55' W 001°40'5 9.2
2018-Jun-11 02:30N 49°57' W 001°47'4 8.4
2018-Jun-11 02:01N 49°58' W 001°53'4 7.5
2018-Jun-11 01:30N 49°58' W 001°59'3 6.6
2018-Jun-11 01:00N 49°58' W 002°04'4 7.9
2018-Jun-11 00:30N 49°54' W 002°05'4 7.7
2018-Jun-11 00:00N 49°50' W 002°05'14 7.2
2018-Jun-10 22:00N 49°36' W 002°06'7 6.2 040 / 141011.8 2.2 14.014.013.0
2018-Jun-10 20:51N 49°37' W 002°17'2 6.7
2018-Jun-10 20:30N 49°34' W 002°18'4 7.1
2018-Jun-10 20:00N 49°31' W 002°20'4 7.2
2018-Jun-10 19:30N 49°28' W 002°23'4 8.1
2018-Jun-10 19:00N 49°25' W 002°27'3 2.4
2018-Jun-10 17:50N 49°28' W 002°30'0 0.0
2018-Jun-10 17:08N 49°28' W 002°30'0 0.0
2018-Jun-10 16:56N 49°28' W 002°30'0 0.0
2018-Jun-10 16:20N 49°28' W 002°30'0 0.0
2018-Jun-10 15:56N 49°28' W 002°30'0 0.0
2018-Jun-10 15:20N 49°28' W 002°30'0 0.0
2018-Jun-10 13:50N 49°28' W 002°30'0 0.0
2018-Jun-10 13:08N 49°28' W 002°30'0 0.1
2018-Jun-10 12:56N 49°28' W 002°30'0 0.0
2018-Jun-10 12:26N 49°28' W 002°30'0 0.0
2018-Jun-10 11:50N 49°28' W 002°30'0 0.0
2018-Jun-10 11:26N 49°28' W 002°30'0 0.0
2018-Jun-10 10:44N 49°28' W 002°30'0 0.1
2018-Jun-10 10:24N 49°28' W 002°30'3 6.4
2018-Jun-10 10:00N 49°25' W 002°30'510.1
2018-Jun-10 09:28N 49°21' W 002°36'712.6
2018-Jun-10 08:54N 49°18' W 002°45'1112.8
2018-Jun-10 08:04N 49°17' W 003°02'612.6
2018-Jun-10 07:37N 49°15' W 003°10'5612.4
2018-Jun-10 03:06N 48°51' W 004°27'214.7
2018-Jun-10 02:59N 48°51' W 004°30'714.7
2018-Jun-10 02:31N 48°50' W 004°40'714.2
2018-Jun-10 02:00N 48°45' W 004°49'  

Dump ship's entire track history